Airport View

Enter ICAO identifier to see the current METAR for that AWOS.

KFNL for example

K8S0 272245Z 24009KT

27 Aug 2014 23:11

Other Area AWOS: KCTB - CWFJ - KGPI - CWRY

TAF KCTB 271722Z 2718/2818 27010KT P6SM SCT200